createdAt,value
2019-04-21T00:00:54.205Z,57.54
2019-04-21T00:03:33.390Z,58.15
2019-04-21T00:06:15.580Z,57.64
2019-04-21T00:08:48.409Z,57.71
2019-04-21T00:11:29.850Z,57.70
2019-04-21T00:13:52.591Z,58.55
2019-04-21T00:16:17.171Z,58.19
2019-04-21T00:19:07.190Z,58.17
2019-04-21T00:21:40.405Z,58.23
2019-04-21T00:24:28.918Z,58.33
2019-04-21T00:27:07.015Z,58.78
2019-04-21T00:29:56.261Z,58.90
2019-04-21T00:32:10.419Z,59.25
2019-04-21T00:34:28.173Z,59.44
2019-04-21T00:37:12.135Z,59.49
2019-04-21T00:40:01.834Z,59.67
2019-04-21T00:42:22.846Z,59.92
2019-04-21T00:45:00.520Z,60.01
2019-04-21T00:47:34.067Z,61.04
2019-04-21T00:50:05.219Z,60.79
2019-04-21T00:55:34.147Z,60.86
2019-04-21T00:58:03.821Z,60.70
2019-04-21T01:00:32.477Z,61.08
2019-04-21T01:03:12.827Z,61.36
2019-04-21T01:05:48.353Z,61.18
2019-04-21T01:08:14.246Z,61.78
2019-04-21T01:10:38.108Z,62.04
2019-04-21T01:13:27.834Z,62.49
2019-04-21T01:16:00.797Z,62.82
2019-04-21T01:18:31.431Z,62.99
2019-04-21T01:20:41.168Z,62.90
2019-04-21T01:23:12.845Z,62.81
2019-04-21T01:25:55.447Z,63.13
2019-04-21T01:28:34.030Z,63.37
2019-04-21T01:31:08.813Z,63.23
2019-04-21T01:33:44.963Z,63.44
2019-04-21T01:36:14.582Z,63.40
2019-04-21T01:38:58.983Z,63.50
2019-04-21T01:41:25.516Z,63.63
2019-04-21T01:43:56.985Z,63.65
2019-04-21T01:46:30.911Z,63.88
2019-04-21T01:49:03.318Z,63.75
2019-04-21T01:51:57.942Z,63.95
2019-04-21T01:54:23.783Z,64.21
2019-04-21T01:57:03.372Z,64.65
2019-04-21T01:59:38.028Z,65.01
2019-04-21T02:02:19.350Z,64.97
2019-04-21T02:04:57.576Z,64.93
2019-04-21T02:07:24.892Z,65.22
2019-04-21T02:09:59.351Z,65.27
2019-04-21T02:12:27.902Z,65.11
2019-04-21T02:15:04.562Z,65.74
2019-04-21T02:17:36.768Z,65.74
2019-04-21T02:20:02.735Z,66.01
2019-04-21T02:22:59.144Z,66.01
2019-04-21T02:25:16.583Z,65.61
2019-04-21T02:27:54.845Z,66.19
2019-04-21T02:30:36.974Z,66.04
2019-04-21T02:33:12.857Z,66.47
2019-04-21T02:38:23.842Z,66.45
2019-04-21T02:40:47.333Z,66.46
2019-04-21T02:43:22.898Z,66.89
2019-04-21T02:45:55.959Z,67.05
2019-04-21T02:50:50.040Z,67.04
2019-04-21T02:58:51.190Z,67.12
2019-04-21T03:01:25.991Z,67.18
2019-04-21T03:03:52.753Z,66.63
2019-04-21T03:06:59.946Z,66.66
2019-04-21T03:09:18.573Z,66.60
2019-04-21T03:11:57.942Z,66.49
2019-04-21T03:16:47.229Z,65.76
2019-04-21T03:19:37.956Z,65.71
2019-04-21T03:22:07.138Z,65.67
2019-04-21T03:25:00.886Z,65.78
2019-04-21T03:27:18.676Z,65.53
2019-04-21T03:29:47.747Z,65.37
2019-04-21T03:35:26.201Z,65.02
2019-04-21T03:37:25.167Z,64.57
2019-04-21T03:40:05.146Z,64.62
2019-04-21T03:45:06.718Z,64.53
2019-04-21T03:50:29.702Z,64.28
2019-04-21T03:52:48.186Z,63.56
2019-04-21T04:00:59.513Z,63.46
2019-04-21T04:06:20.833Z,62.92
2019-04-21T04:08:57.801Z,63.62
2019-04-21T04:14:09.761Z,64.84
2019-04-21T04:24:19.598Z,58.84
2019-04-21T04:26:49.017Z,56.98
2019-04-21T04:29:19.857Z,55.82
2019-04-21T04:34:27.612Z,53.91
2019-04-21T04:37:05.908Z,53.68
2019-04-21T04:50:15.447Z,49.28
2019-04-21T04:55:06.784Z,50.20
2019-04-21T04:57:57.746Z,49.75
2019-04-21T05:02:48.840Z,50.34
2019-04-21T05:05:26.764Z,49.62
2019-04-21T05:07:58.006Z,50.41
2019-04-21T05:10:44.822Z,49.91
2019-04-21T05:12:56.980Z,49.24
2019-04-21T05:15:42.116Z,48.20
2019-04-21T05:18:05.395Z,47.92
2019-04-21T05:20:50.648Z,47.48
2019-04-21T05:23:06.333Z,46.72
2019-04-21T05:25:37.869Z,46.55
2019-04-21T05:28:09.066Z,47.31
2019-04-21T05:30:58.414Z,47.45
2019-04-21T05:33:33.224Z,47.41
2019-04-21T05:36:23.907Z,47.04
2019-04-21T05:38:59.557Z,46.65
2019-04-21T05:41:29.140Z,46.13
2019-04-21T05:44:12.811Z,45.95
2019-04-21T05:46:49.572Z,45.54
2019-04-21T05:49:20.590Z,45.04
2019-04-21T05:51:58.344Z,43.84
2019-04-21T05:54:44.088Z,42.47
2019-04-21T05:57:10.160Z,42.07
2019-04-21T05:59:43.616Z,41.15
2019-04-21T06:02:22.397Z,40.11
2019-04-21T06:05:05.868Z,40.07
2019-04-21T06:07:30.232Z,40.28
2019-04-21T06:09:59.587Z,40.45
2019-04-21T06:12:38.261Z,39.38
2019-04-21T06:15:12.293Z,39.53
2019-04-21T06:17:44.569Z,39.54
2019-04-21T06:20:13.678Z,38.55
2019-04-21T06:22:54.800Z,38.22
2019-04-21T06:27:57.468Z,37.61
2019-04-21T06:30:32.136Z,36.04
2019-04-21T06:33:00.290Z,35.88
2019-04-21T06:36:21.446Z,34.46
2019-04-21T06:38:56.952Z,32.71
2019-04-21T06:41:21.377Z,33.03
2019-04-21T06:43:59.936Z,33.58
2019-04-21T06:46:33.447Z,31.43
2019-04-21T06:51:32.296Z,31.10
2019-04-21T06:54:09.502Z,30.29
2019-04-21T06:56:46.461Z,32.02
2019-04-21T06:59:09.629Z,31.67
2019-04-21T07:01:51.457Z,35.16
2019-04-21T07:06:57.491Z,33.05
2019-04-21T07:09:48.390Z,33.24
2019-04-21T07:11:59.852Z,33.95
2019-04-21T07:14:38.461Z,33.44
2019-04-21T07:17:16.228Z,33.26
2019-04-21T07:22:17.751Z,32.35
2019-04-21T07:24:54.018Z,32.99
2019-04-21T07:27:23.974Z,31.69
2019-04-21T07:32:29.045Z,30.47
2019-04-21T07:35:03.928Z,29.59
2019-04-21T07:37:35.518Z,29.32
2019-04-21T07:40:05.588Z,30.25
2019-04-21T07:42:38.057Z,30.12
2019-04-21T07:45:13.006Z,30.12
2019-04-21T07:47:50.787Z,29.03
2019-04-21T07:50:47.489Z,29.83
2019-04-21T07:53:28.761Z,27.98
2019-04-21T07:55:37.359Z,27.19
2019-04-21T07:58:36.390Z,28.18
2019-04-21T08:01:07.416Z,27.59
2019-04-21T08:03:33.639Z,27.35
2019-04-21T08:06:32.009Z,27.07
2019-04-21T08:08:42.187Z,26.18
2019-04-21T08:11:09.600Z,26.21
2019-04-21T08:13:48.797Z,25.53
2019-04-21T08:16:25.396Z,25.68
2019-04-21T08:18:52.431Z,25.63
2019-04-21T08:21:30.841Z,26.11
2019-04-21T08:23:55.688Z,27.19
2019-04-21T08:26:36.991Z,25.69
2019-04-21T08:29:14.490Z,27.13
2019-04-21T08:31:50.029Z,26.34
2019-04-21T08:34:14.015Z,25.56
2019-04-21T08:36:44.899Z,25.44
2019-04-21T08:39:24.112Z,25.75
2019-04-21T08:41:55.949Z,25.85
2019-04-21T08:44:33.358Z,25.66
2019-04-21T08:47:09.645Z,25.18
2019-04-21T08:49:35.087Z,25.36
2019-04-21T08:52:20.979Z,26.16
2019-04-21T08:54:47.096Z,23.95
2019-04-21T08:57:37.695Z,25.50
2019-04-21T09:02:47.496Z,25.72
2019-04-21T09:05:20.651Z,24.40
2019-04-21T09:07:57.489Z,26.57
2019-04-21T09:10:33.421Z,25.65
2019-04-21T09:12:58.916Z,25.50
2019-04-21T09:15:33.753Z,25.11
2019-04-21T09:18:05.373Z,24.99
2019-04-21T09:20:47.362Z,24.79
2019-04-21T09:23:18.101Z,24.75
2019-04-21T09:25:46.232Z,25.28
2019-04-21T09:28:18.309Z,25.06
2019-04-21T09:30:43.393Z,24.74
2019-04-21T09:33:09.261Z,24.49
2019-04-21T09:35:50.070Z,25.62
2019-04-21T09:38:27.580Z,25.62
2019-04-21T09:40:54.389Z,24.61
2019-04-21T09:43:35.480Z,24.45
2019-04-21T09:45:58.892Z,25.18
2019-04-21T09:48:45.650Z,24.64
2019-04-21T09:51:06.579Z,24.41
2019-04-21T09:53:42.222Z,25.33
2019-04-21T09:56:17.849Z,23.55
2019-04-21T09:58:49.548Z,25.09
2019-04-21T10:01:28.250Z,25.43
2019-04-21T10:03:57.220Z,25.60
2019-04-21T10:06:26.298Z,24.22
2019-04-21T10:09:04.024Z,24.88
2019-04-21T10:11:31.143Z,25.16
2019-04-21T10:14:03.309Z,24.88
2019-04-21T10:16:36.486Z,24.44
2019-04-21T10:19:08.862Z,24.13
2019-04-21T10:21:40.395Z,23.07
2019-04-21T10:24:12.505Z,23.49
2019-04-21T10:26:45.146Z,24.19
2019-04-21T10:29:23.721Z,21.71
2019-04-21T10:31:50.527Z,22.77
2019-04-21T10:34:23.105Z,20.21
2019-04-21T10:37:00.744Z,20.39
2019-04-21T10:39:33.662Z,20.26
2019-04-21T10:42:05.672Z,19.35
2019-04-21T10:44:37.311Z,20.05
2019-04-21T10:47:08.849Z,19.34
2019-04-21T10:49:40.369Z,19.55
2019-04-21T10:52:13.327Z,18.87
2019-04-21T10:55:07.288Z,19.43
2019-04-21T10:57:22.178Z,19.95
2019-04-21T10:59:55.919Z,18.54
2019-04-21T11:02:34.884Z,18.93
2019-04-21T11:05:09.082Z,18.20
2019-04-21T11:08:05.123Z,18.60
2019-04-21T11:10:25.784Z,18.11
2019-04-21T11:12:58.618Z,18.13
2019-04-21T11:15:31.366Z,17.94
2019-04-21T11:18:04.015Z,17.57
2019-04-21T11:20:35.467Z,18.67
2019-04-21T11:23:08.364Z,17.22
2019-04-21T11:25:41.966Z,18.06
2019-04-21T11:28:14.316Z,17.55
2019-04-21T11:30:46.702Z,18.77
2019-04-21T11:33:21.304Z,17.25
2019-04-21T11:35:53.283Z,18.11
2019-04-21T11:38:55.818Z,18.69
2019-04-21T11:41:09.886Z,19.49
2019-04-21T11:43:43.231Z,18.89
2019-04-21T11:46:16.147Z,18.18
2019-04-21T11:48:48.343Z,18.26
2019-04-21T11:51:19.511Z,16.86
2019-04-21T11:53:50.906Z,17.46
2019-04-21T11:56:25.117Z,17.52
2019-04-21T11:58:57.788Z,17.55
2019-04-21T12:01:29.813Z,17.20
2019-04-21T12:04:01.649Z,18.04
2019-04-21T12:06:40.916Z,17.59
2019-04-21T12:09:09.959Z,17.57
2019-04-21T12:11:41.547Z,17.78
2019-04-21T12:14:14.228Z,17.42
2019-04-21T12:16:46.901Z,17.29
2019-04-21T12:19:22.625Z,17.28
2019-04-21T12:22:05.098Z,17.46
2019-04-21T12:24:31.227Z,17.22
2019-04-21T12:27:02.433Z,18.09
2019-04-21T12:29:33.838Z,18.78
2019-04-21T12:32:16.009Z,18.06
2019-04-21T12:34:50.505Z,18.58
2019-04-21T12:37:20.535Z,17.95
2019-04-21T12:39:52.911Z,18.62
2019-04-21T12:42:24.902Z,18.61
2019-04-21T12:44:57.314Z,17.99
2019-04-21T12:47:30.015Z,17.88
2019-04-21T12:50:02.731Z,18.35
2019-04-21T12:52:35.725Z,17.66
2019-04-21T12:55:09.802Z,17.13
2019-04-21T12:57:43.538Z,16.68
2019-04-21T13:00:18.527Z,16.64
2019-04-21T13:02:49.908Z,16.16
2019-04-21T13:05:22.660Z,16.16
2019-04-21T13:07:55.502Z,17.66
2019-04-21T13:10:26.883Z,17.00
2019-04-21T13:12:59.728Z,17.24
2019-04-21T13:15:31.698Z,16.47
2019-04-21T13:18:02.915Z,16.33
2019-04-21T13:20:35.888Z,16.28
2019-04-21T13:23:08.570Z,16.61
2019-04-21T13:25:41.784Z,16.77
2019-04-21T13:28:14.689Z,16.18
2019-04-21T13:30:48.730Z,16.18
2019-04-21T13:33:21.031Z,15.89
2019-04-21T13:35:55.263Z,16.37
2019-04-21T13:38:35.154Z,19.28
2019-04-21T13:41:29.651Z,18.28
2019-04-21T13:43:47.511Z,17.29
2019-04-21T13:46:27.175Z,16.77
2019-04-21T13:49:05.243Z,16.65
2019-04-21T13:51:41.633Z,17.24
2019-04-21T13:54:14.033Z,17.73
2019-04-21T13:56:47.998Z,19.69
2019-04-21T13:59:22.484Z,20.84
2019-04-21T14:01:56.761Z,21.86
2019-04-21T14:04:29.930Z,22.20
2019-04-21T14:07:02.505Z,23.06
2019-04-21T14:09:43.899Z,22.09
2019-04-21T14:12:09.679Z,21.90
2019-04-21T14:14:42.042Z,21.74
2019-04-21T14:17:15.141Z,22.08
2019-04-21T14:19:49.262Z,23.33
2019-04-21T14:22:24.357Z,22.97
2019-04-21T14:25:01.821Z,23.63
2019-04-21T14:27:36.521Z,23.46
2019-04-21T14:30:10.492Z,22.06
2019-04-21T14:33:02.326Z,21.07
2019-04-21T14:35:36.715Z,20.30
2019-04-21T14:38:10.837Z,20.93
2019-04-21T14:40:44.146Z,21.58
2019-04-21T14:43:16.566Z,21.73
2019-04-21T14:46:06.441Z,21.67
2019-04-21T14:48:57.235Z,23.42
2019-04-21T14:51:38.967Z,23.25
2019-04-21T14:54:12.449Z,23.95
2019-04-21T14:56:44.962Z,24.97
2019-04-21T14:59:17.273Z,24.13
2019-04-21T15:01:50.049Z,24.61
2019-04-21T15:04:22.879Z,24.76
2019-04-21T15:06:55.521Z,24.55
2019-04-21T15:09:27.189Z,25.18
2019-04-21T15:12:00.195Z,25.17
2019-04-21T15:14:33.941Z,25.74
2019-04-21T15:17:05.525Z,26.78
2019-04-21T15:19:38.407Z,26.41
2019-04-21T15:22:12.332Z,26.77
2019-04-21T15:24:44.510Z,26.37
2019-04-21T15:27:16.859Z,26.77
2019-04-21T15:29:51.065Z,25.53
2019-04-21T15:32:22.743Z,25.25
2019-04-21T15:34:56.350Z,25.54
2019-04-21T15:37:29.133Z,25.47
2019-04-21T15:40:18.127Z,25.83
2019-04-21T15:42:42.192Z,25.96
2019-04-21T15:45:14.604Z,25.59
2019-04-21T15:47:47.499Z,26.04
2019-04-21T15:50:20.184Z,25.65
2019-04-21T15:52:53.842Z,26.22
2019-04-21T15:55:44.515Z,26.29
2019-04-21T15:58:22.776Z,26.02
2019-04-21T16:00:56.431Z,26.44
2019-04-21T16:03:31.118Z,26.60
2019-04-21T16:06:03.284Z,27.07
2019-04-21T16:08:35.240Z,26.52
2019-04-21T16:11:11.092Z,26.82
2019-04-21T16:13:41.725Z,26.07
2019-04-21T16:16:14.661Z,26.36
2019-04-21T16:18:46.262Z,26.71
2019-04-21T16:21:18.074Z,26.89
2019-04-21T16:23:50.765Z,26.86
2019-04-21T16:26:22.573Z,27.29
2019-04-21T16:28:55.279Z,27.88
2019-04-21T16:31:27.904Z,27.77
2019-04-21T16:34:00.935Z,28.12
2019-04-21T16:36:33.874Z,28.58
2019-04-21T16:39:07.339Z,29.21
2019-04-21T16:41:40.384Z,29.69
2019-04-21T16:44:13.405Z,30.58
2019-04-21T16:46:45.454Z,30.90
2019-04-21T16:49:17.881Z,30.45
2019-04-21T16:52:12.190Z,30.98
2019-04-21T16:54:47.830Z,30.87
2019-04-21T16:57:39.815Z,31.37
2019-04-21T17:00:26.418Z,31.54
2019-04-21T17:02:48.059Z,31.91
2019-04-21T17:05:30.049Z,31.90
2019-04-21T17:08:03.952Z,31.70
2019-04-21T17:10:36.057Z,32.25
2019-04-21T17:13:09.887Z,32.53
2019-04-21T17:15:53.152Z,32.96
2019-04-21T17:18:33.115Z,33.11
2019-04-21T17:20:55.389Z,33.22
2019-04-21T17:23:22.226Z,33.42
2019-04-21T17:25:55.190Z,33.65
2019-04-21T17:28:27.843Z,33.99
2019-04-21T17:31:00.111Z,34.03
2019-04-21T17:33:33.863Z,34.48
2019-04-21T17:36:07.182Z,34.75
2019-04-21T17:38:39.717Z,34.74
2019-04-21T17:41:25.109Z,34.97
2019-04-21T17:43:46.003Z,35.33
2019-04-21T17:46:22.956Z,35.46
2019-04-21T17:48:50.849Z,35.67
2019-04-21T17:51:25.643Z,35.66
2019-04-21T17:54:13.669Z,35.71
2019-04-21T17:57:16.288Z,35.85
2019-04-21T17:59:45.134Z,36.03
2019-04-21T18:02:05.151Z,36.55
2019-04-21T18:04:43.177Z,36.77
2019-04-21T18:07:21.533Z,37.26
2019-04-21T18:12:34.886Z,37.72
2019-04-21T18:14:59.838Z,38.35
2019-04-21T18:17:24.666Z,38.92
2019-04-21T18:19:57.278Z,39.55
2019-04-21T18:22:39.536Z,39.64
2019-04-21T18:25:12.472Z,39.65
2019-04-21T18:27:43.132Z,39.72
2019-04-21T18:30:52.358Z,40.00
2019-04-21T18:33:29.928Z,40.84
2019-04-21T18:36:02.892Z,40.34
2019-04-21T18:39:00.068Z,40.88
2019-04-21T18:41:19.618Z,41.02
2019-04-21T18:47:07.368Z,41.53
2019-04-21T18:49:41.827Z,41.83
2019-04-21T18:52:22.519Z,42.35
2019-04-21T18:55:02.889Z,42.57
2019-04-21T18:57:30.633Z,42.84
2019-04-21T18:59:55.345Z,43.61
2019-04-21T19:02:31.723Z,43.47
2019-04-21T19:05:07.858Z,43.63
2019-04-21T19:07:55.802Z,43.28
2019-04-21T19:10:35.969Z,43.56
2019-04-21T19:15:33.845Z,43.97
2019-04-21T19:20:44.808Z,44.49
2019-04-21T19:23:26.989Z,44.41
2019-04-21T19:26:03.723Z,44.78
2019-04-21T19:28:27.056Z,44.91
2019-04-21T19:31:04.945Z,45.57
2019-04-21T19:33:24.107Z,45.29
2019-04-21T19:35:47.729Z,45.17
2019-04-21T19:38:30.194Z,45.26
2019-04-21T19:41:10.395Z,45.49
2019-04-21T19:43:49.187Z,45.74
2019-04-21T19:46:19.361Z,45.64
2019-04-21T19:49:01.190Z,45.89
2019-04-21T19:51:23.208Z,45.74
2019-04-21T19:53:53.860Z,46.13
2019-04-21T19:56:16.188Z,46.31
2019-04-21T19:58:50.780Z,46.21
2019-04-21T20:01:23.552Z,45.28
2019-04-21T20:03:59.108Z,45.37
2019-04-21T20:06:45.518Z,45.30
2019-04-21T20:09:22.010Z,45.35
2019-04-21T20:11:55.495Z,45.44
2019-04-21T20:16:59.258Z,45.89
2019-04-21T20:19:22.927Z,45.51
2019-04-21T20:21:56.937Z,46.38
2019-04-21T20:24:32.027Z,46.60
2019-04-21T20:27:11.404Z,46.89
2019-04-21T20:29:57.992Z,46.97
2019-04-21T20:32:45.313Z,46.89
2019-04-21T20:35:12.479Z,46.78
2019-04-21T20:37:31.692Z,47.23
2019-04-21T20:39:58.393Z,47.26
2019-04-21T20:42:38.999Z,47.22
2019-04-21T20:45:32.003Z,48.20
2019-04-21T20:47:39.421Z,47.79
2019-04-21T20:50:19.687Z,47.75
2019-04-21T20:53:00.020Z,47.38
2019-04-21T20:55:22.407Z,46.11
2019-04-21T20:57:59.706Z,45.13
2019-04-21T21:00:45.694Z,45.26
2019-04-21T21:03:12.024Z,45.76
2019-04-21T21:05:42.473Z,46.40
2019-04-21T21:08:29.514Z,46.42
2019-04-21T21:10:57.510Z,46.57
2019-04-21T21:13:41.329Z,46.92
2019-04-21T21:16:15.117Z,46.97
2019-04-21T21:19:15.774Z,47.36
2019-04-21T21:21:11.586Z,47.60
2019-04-21T21:23:47.780Z,47.66
2019-04-21T21:26:25.632Z,47.78
2019-04-21T21:28:51.421Z,47.98
2019-04-21T21:31:35.723Z,48.58
2019-04-21T21:34:21.178Z,48.55
2019-04-21T21:36:36.471Z,49.00
2019-04-21T21:39:09.617Z,49.33
2019-04-21T21:41:31.796Z,49.36
2019-04-21T21:44:14.848Z,49.34
2019-04-21T21:46:53.833Z,49.65
2019-04-21T21:49:36.971Z,49.97
2019-04-21T21:51:59.274Z,50.47
2019-04-21T21:54:25.586Z,50.52
2019-04-21T21:56:58.557Z,50.79
2019-04-21T21:59:33.664Z,51.08
2019-04-21T22:02:05.121Z,51.14
2019-04-21T22:04:38.944Z,51.31
2019-04-21T22:07:15.152Z,51.47
2019-04-21T22:09:44.309Z,52.04
2019-04-21T22:12:18.175Z,51.84
2019-04-21T22:14:54.090Z,52.08
2019-04-21T22:17:41.698Z,52.14
2019-04-21T22:20:13.407Z,52.38
2019-04-21T22:22:42.560Z,52.45
2019-04-21T22:25:12.716Z,52.69
2019-04-21T22:27:41.052Z,52.70
2019-04-21T22:30:14.718Z,52.95
2019-04-21T22:32:53.684Z,52.90
2019-04-21T22:35:27.152Z,52.80
2019-04-21T22:38:10.816Z,52.88
2019-04-21T22:40:44.048Z,53.69
2019-04-21T22:43:15.904Z,53.22
2019-04-21T22:45:35.578Z,53.33
2019-04-21T22:48:15.559Z,53.89
2019-04-21T22:50:42.354Z,54.18
2019-04-21T22:53:17.204Z,54.42
2019-04-21T22:55:49.512Z,54.74
2019-04-21T22:58:28.294Z,54.90
2019-04-21T23:00:57.123Z,54.90
2019-04-21T23:03:28.888Z,55.01
2019-04-21T23:06:11.059Z,55.12
2019-04-21T23:08:40.062Z,55.24
2019-04-21T23:11:12.420Z,55.07
2019-04-21T23:13:51.669Z,55.17
2019-04-21T23:16:21.470Z,55.45
2019-04-21T23:19:14.331Z,55.53
2019-04-21T23:21:48.939Z,55.52
2019-04-21T23:24:17.436Z,55.91
2019-04-21T23:26:48.658Z,56.08
2019-04-21T23:29:25.730Z,56.07
2019-04-21T23:31:55.110Z,56.02
2019-04-21T23:34:18.371Z,55.33
2019-04-21T23:36:53.056Z,56.35
2019-04-21T23:39:23.368Z,56.35
2019-04-21T23:41:55.418Z,56.50
2019-04-21T23:44:28.169Z,57.14
2019-04-21T23:47:03.411Z,57.14
2019-04-21T23:49:43.007Z,57.04
2019-04-21T23:52:11.921Z,57.21
2019-04-21T23:54:41.070Z,57.45
2019-04-21T23:57:20.845Z,57.73
2019-04-21T23:59:50.402Z,58.13
